Time;durP1;ratioP1;P1;durP2;ratioP2;P2;SDS_P1;SDS_P2;PMS_P1;PMS_P2;Temp;Humidity;BMP_temperature;BMP_pressure;BME280_temperature;BME280_humidity;BME280_pressure;Samples;Min_cycle;Max_cycle;Signal;HPM_P1;HPM_P2
2022/03/21 00:01:19;;;;;;;37.75;24.90;;;8.10;99.90;;;;;;5060902;28;20238;-71
2022/03/21 00:03:45;;;;;;;39.55;25.88;;;8.20;99.90;;;;;;5063382;28;20393;-71
2022/03/21 00:06:11;;;;;;;36.05;23.80;;;8.30;99.90;;;;;;5096780;28;20087;-71
2022/03/21 00:08:37;;;;;;;33.95;23.35;;;8.30;99.90;;;;;;5062309;28;20159;-71
2022/03/21 00:11:03;;;;;;;33.67;23.45;;;8.40;99.90;;;;;;5051337;28;20053;-71
2022/03/21 00:13:28;;;;;;;34.20;22.90;;;8.40;99.90;;;;;;5062641;28;20053;-71
2022/03/21 00:15:55;;;;;;;34.20;23.48;;;8.30;99.90;;;;;;5097399;28;20049;-71
2022/03/21 00:18:22;;;;;;;32.97;22.90;;;8.20;99.90;;;;;;5096888;28;20045;-71
2022/03/21 00:20:52;;;;;;;32.90;22.77;;;8.30;99.90;;;;;;5087347;28;20053;-71
2022/03/21 00:23:18;;;;;;;33.50;21.77;;;8.40;99.90;;;;;;5035674;28;20056;-71
2022/03/21 00:25:44;;;;;;;32.40;22.70;;;8.30;99.90;;;;;;5095487;28;20045;-71
2022/03/21 00:28:10;;;;;;;31.13;21.55;;;8.30;99.90;;;;;;5059690;28;20049;-71
2022/03/21 00:30:38;;;;;;;39.47;23.35;;;8.30;99.90;;;;;;5095758;28;20040;-71
2022/03/21 00:33:04;;;;;;;34.08;22.00;;;8.20;99.90;;;;;;5095976;28;20040;-71
2022/03/21 00:35:30;;;;;;;31.67;21.40;;;8.20;99.90;;;;;;5096829;28;20084;-71
2022/03/21 00:37:57;;;;;;;32.70;21.27;;;8.20;99.90;;;;;;5096162;28;20565;-71
2022/03/21 00:40:24;;;;;;;32.03;19.67;;;8.20;99.90;;;;;;5062175;28;20057;-71
2022/03/21 00:42:51;;;;;;;33.80;21.40;;;8.20;99.90;;;;;;5061972;28;20080;-71
2022/03/21 00:45:20;;;;;;;30.20;21.20;;;8.20;99.90;;;;;;5040106;28;20045;-71
2022/03/21 00:47:49;;;;;;;32.78;21.27;;;8.10;99.90;;;;;;5055913;28;20471;-71
2022/03/21 00:50:16;;;;;;;28.33;19.60;;;8.20;99.90;;;;;;5037322;28;20033;-71
2022/03/21 00:52:47;;;;;;;34.85;20.35;;;7.90;99.90;;;;;;5058836;28;20051;-71
2022/03/21 00:55:14;;;;;;;31.02;21.15;;;7.90;99.90;;;;;;5061806;28;20056;-71
2022/03/21 00:57:42;;;;;;;28.92;21.25;;;7.70;99.90;;;;;;5078984;28;20600;-71
2022/03/21 01:00:12;;;;;;;32.33;20.60;;;7.80;99.90;;;;;;5066829;28;20526;-71
2022/03/21 01:02:39;;;;;;;27.55;19.23;;;7.80;99.90;;;;;;5090944;28;20100;-71
2022/03/21 01:05:07;;;;;;;29.88;20.90;;;7.80;99.90;;;;;;5096060;28;20048;-71
2022/03/21 01:07:33;;;;;;;29.27;19.45;;;7.90;99.90;;;;;;5096958;28;20045;-71
2022/03/21 01:09:59;;;;;;;34.35;21.17;;;7.80;99.90;;;;;;5047605;28;20088;-71
2022/03/21 01:12:26;;;;;;;30.38;20.30;;;7.80;99.90;;;;;;5058100;28;20052;-71
2022/03/21 01:14:52;;;;;;;28.98;20.83;;;7.80;99.90;;;;;;5055404;28;20047;-71
2022/03/21 01:17:18;;;;;;;30.48;21.15;;;7.70;99.90;;;;;;5095220;28;20072;-71
2022/03/21 01:19:43;;;;;;;32.50;21.73;;;7.60;99.90;;;;;;5095085;28;20068;-71
2022/03/21 01:22:10;;;;;;;32.38;22.65;;;7.70;99.90;;;;;;5052148;28;20543;-71
2022/03/21 01:24:37;;;;;;;32.53;21.17;;;7.60;99.90;;;;;;5055424;28;20091;-71
2022/03/21 01:27:07;;;;;;;33.25;21.73;;;7.60;99.90;;;;;;5057769;28;20049;-71
2022/03/21 01:29:34;;;;;;;31.50;20.73;;;7.50;99.90;;;;;;5060861;28;20051;-71
2022/03/21 01:32:00;;;;;;;32.88;22.08;;;7.50;99.90;;;;;;5095270;28;20337;-71
2022/03/21 01:34:26;;;;;;;36.95;22.02;;;7.50;99.90;;;;;;5096595;28;20045;-71
2022/03/21 01:36:52;;;;;;;35.03;22.00;;;7.50;99.90;;;;;;5063191;28;20072;-71
2022/03/21 01:39:19;;;;;;;36.42;24.70;;;7.50;99.90;;;;;;5063326;28;20041;-71
2022/03/21 01:41:45;;;;;;;38.30;24.38;;;7.40;99.90;;;;;;5063738;28;20053;-71
2022/03/21 01:44:11;;;;;;;36.28;22.38;;;7.40;99.90;;;;;;5062229;28;20095;-71
2022/03/21 01:46:39;;;;;;;32.90;21.63;;;7.50;99.90;;;;;;5063065;28;20048;-71
2022/03/21 01:49:06;;;;;;;35.85;23.23;;;7.50;99.90;;;;;;5074854;28;20048;-71
2022/03/21 01:51:34;;;;;;;35.03;22.05;;;7.50;99.90;;;;;;5095336;28;20045;-71
2022/03/21 01:56:46;;;;;;;31.80;23.50;;;7.60;99.90;;;;;;5096647;28;20056;-71
2022/03/21 01:59:13;;;;;;;36.78;23.20;;;7.50;99.90;;;;;;5064406;28;20075;-71
2022/03/21 02:01:40;;;;;;;36.63;23.38;;;7.60;99.90;;;;;;5101542;28;20607;-71
2022/03/21 02:04:06;;;;;;;36.03;24.08;;;7.60;99.90;;;;;;5066177;28;20102;-71
2022/03/21 02:06:32;;;;;;;38.15;24.27;;;7.60;99.90;;;;;;5082733;28;20048;-71
2022/03/21 02:08:59;;;;;;;34.42;24.58;;;7.60;99.90;;;;;;5043329;28;20053;-71
2022/03/21 02:11:29;;;;;;;36.00;23.88;;;7.50;99.90;;;;;;5063687;28;20132;-71
2022/03/21 02:13:59;;;;;;;32.50;23.38;;;7.50;99.90;;;;;;5051839;28;20041;-71
2022/03/21 02:16:25;;;;;;;;;;;7.70;99.90;;;;;;5095217;28;20044;-71
2022/03/21 02:18:52;;;;;;;36.72;22.30;;;7.60;99.90;;;;;;5061810;28;20015;-71
2022/03/21 02:21:36;;;;;;;34.97;22.63;;;7.70;99.90;;;;;;5094337;28;20056;-71
2022/03/21 02:24:08;;;;;;;32.95;22.85;;;7.70;99.90;;;;;;5059530;28;20053;-71
2022/03/21 02:26:36;;;;;;;33.83;22.15;;;7.60;99.90;;;;;;5064020;28;20382;-71
2022/03/21 02:29:03;;;;;;;32.22;21.73;;;7.60;99.90;;;;;;5065962;28;20064;-71
2022/03/21 02:31:34;;;;;;;29.63;21.13;;;7.60;99.90;;;;;;5098193;28;20418;-71
2022/03/21 02:34:00;;;;;;;;;;;7.60;99.90;;;;;;5064930;28;20048;-71
2022/03/21 02:36:27;;;;;;;32.88;21.90;;;7.50;99.90;;;;;;5097811;28;19921;-71
2022/03/21 02:38:56;;;;;;;30.30;21.38;;;7.50;99.90;;;;;;5090781;28;20057;-71
2022/03/21 02:41:22;;;;;;;32.22;20.77;;;7.50;99.90;;;;;;5064119;28;20040;-71
2022/03/21 02:43:56;;;;;;;31.70;21.05;;;7.60;99.90;;;;;;5097808;28;20041;-71
2022/03/21 02:46:23;;;;;;;29.17;20.08;;;7.50;99.90;;;;;;5064039;28;20047;-71
2022/03/21 02:48:50;;;;;;;32.85;21.48;;;7.50;99.90;;;;;;5065401;28;20059;-71
2022/03/21 02:51:20;;;;;;;32.95;20.80;;;7.40;99.90;;;;;;5063818;28;20053;-71
2022/03/21 02:53:50;;;;;;;30.75;21.48;;;7.30;99.90;;;;;;5065890;28;20037;-71
2022/03/21 02:56:16;;;;;;;;;;;7.30;99.90;;;;;;5059245;28;20072;-71
2022/03/21 02:58:42;;;;;;;32.08;20.67;;;7.40;99.90;;;;;;5065149;28;20414;-71
2022/03/21 03:01:10;;;;;;;32.28;20.35;;;7.30;99.90;;;;;;5050569;28;20072;-71
2022/03/21 03:03:36;;;;;;;27.27;18.05;;;7.30;99.90;;;;;;5054313;28;20045;-71
2022/03/21 03:06:02;;;;;;;31.23;18.83;;;7.20;99.90;;;;;;5090789;28;20112;-71
2022/03/21 03:08:29;;;;;;;30.10;19.92;;;7.20;99.90;;;;;;5062169;28;20096;-71
2022/03/21 03:10:55;;;;;;;30.00;19.45;;;7.10;99.90;;;;;;5063633;28;20068;-71
2022/03/21 03:13:21;;;;;;;31.02;18.65;;;7.10;99.90;;;;;;5040286;28;20037;-71
2022/03/21 03:15:47;;;;;;;29.30;19.58;;;7.00;99.90;;;;;;5066182;28;20048;-71
2022/03/21 03:18:13;;;;;;;28.27;17.75;;;7.10;99.90;;;;;;5063249;28;20102;-71
2022/03/21 03:20:48;;;;;;;25.40;17.50;;;7.00;99.90;;;;;;5057062;28;20106;-71
2022/03/21 03:23:13;;;;;;;24.88;16.90;;;7.00;99.90;;;;;;5096686;28;20048;-71
2022/03/21 03:25:39;;;;;;;22.98;16.25;;;6.70;99.90;;;;;;5096805;28;20177;-71
2022/03/21 03:28:05;;;;;;;25.85;16.67;;;6.60;99.90;;;;;;5061884;28;20037;-71
2022/03/21 03:30:33;;;;;;;24.58;15.88;;;6.30;99.90;;;;;;5065290;28;20033;-71
2022/03/21 03:32:58;;;;;;;23.10;17.05;;;6.10;99.90;;;;;;5063711;28;20523;-71
2022/03/21 03:35:24;;;;;;;24.23;15.80;;;6.00;99.90;;;;;;5062783;28;20049;-71
2022/03/21 03:37:50;;;;;;;25.30;16.95;;;5.80;99.90;;;;;;5088469;28;20056;-71
2022/03/21 03:40:17;;;;;;;27.75;17.45;;;5.70;99.90;;;;;;5078926;28;20061;-71
2022/03/21 03:42:43;;;;;;;22.48;15.07;;;5.70;99.90;;;;;;5059952;28;20556;-71
2022/03/21 03:45:09;;;;;;;21.02;14.52;;;5.50;99.90;;;;;;5097769;28;20049;-71
2022/03/21 03:47:35;;;;;;;21.23;15.73;;;5.50;99.90;;;;;;5079410;28;20052;-71
2022/03/21 03:50:02;;;;;;;21.63;14.93;;;5.30;99.90;;;;;;5056412;28;20047;-71
2022/03/21 03:52:28;;;;;;;25.58;17.45;;;5.30;99.90;;;;;;5062730;28;20047;-71
2022/03/21 03:54:54;;;;;;;22.23;14.95;;;5.30;99.90;;;;;;5063978;28;20048;-71
2022/03/21 03:57:20;;;;;;;24.52;15.57;;;5.10;99.90;;;;;;5096439;28;20052;-71
2022/03/21 03:59:46;;;;;;;24.83;17.13;;;4.90;99.90;;;;;;5058351;28;20041;-71
2022/03/21 04:02:11;;;;;;;25.90;16.52;;;4.90;99.90;;;;;;5057760;28;20053;-71
2022/03/21 04:04:37;;;;;;;25.33;16.00;;;4.70;99.90;;;;;;5097306;28;20041;-71
2022/03/21 04:07:03;;;;;;;20.98;14.32;;;4.50;99.90;;;;;;5079569;28;20045;-71
2022/03/21 04:09:29;;;;;;;24.52;14.43;;;4.60;99.90;;;;;;5096100;28;20037;-71
2022/03/21 04:11:55;;;;;;;22.85;15.07;;;4.30;99.90;;;;;;5079095;28;20052;-71
2022/03/21 04:14:20;;;;;;;23.85;15.07;;;4.30;99.90;;;;;;5089108;28;20041;-71
2022/03/21 04:16:46;;;;;;;18.45;12.73;;;4.10;99.90;;;;;;5078374;28;20044;-71
2022/03/21 04:19:13;;;;;;;20.55;13.80;;;4.20;99.90;;;;;;5096230;28;20044;-71
2022/03/21 04:21:40;;;;;;;22.38;13.05;;;4.20;99.90;;;;;;5063422;28;20059;-71
2022/03/21 04:24:06;;;;;;;23.88;10.95;;;4.00;99.90;;;;;;5061077;28;20052;-71
2022/03/21 04:26:31;;;;;;;21.05;14.25;;;3.90;99.90;;;;;;5096217;28;20075;-71
2022/03/21 04:28:57;;;;;;;26.88;17.75;;;3.90;99.90;;;;;;5078271;28;20049;-71
2022/03/21 04:31:24;;;;;;;35.80;18.95;;;4.00;99.90;;;;;;5088427;28;20045;-71
2022/03/21 04:33:49;;;;;;;23.45;14.75;;;3.90;99.90;;;;;;5061987;28;20052;-71
2022/03/21 04:36:15;;;;;;;25.02;15.02;;;3.70;99.90;;;;;;5096709;28;20037;-71
2022/03/21 04:38:41;;;;;;;21.23;13.88;;;3.80;99.90;;;;;;5079858;28;20045;-71
2022/03/21 04:41:07;;;;;;;20.67;14.63;;;3.80;99.90;;;;;;5095845;28;20550;-71
2022/03/21 04:43:33;;;;;;;24.63;15.68;;;3.70;99.90;;;;;;5078924;28;20108;-71
2022/03/21 04:45:59;;;;;;;27.38;17.67;;;3.50;99.90;;;;;;5078789;28;20052;-71
2022/03/21 04:48:24;;;;;;;25.13;16.90;;;3.60;99.90;;;;;;5078412;28;20041;-71
2022/03/21 04:50:51;;;;;;;28.63;17.95;;;3.50;99.90;;;;;;5036506;28;20041;-71
2022/03/21 04:53:17;;;;;;;26.70;16.67;;;3.60;99.90;;;;;;5095430;28;20049;-71
2022/03/21 04:55:43;;;;;;;29.40;18.70;;;3.40;99.90;;;;;;5056604;28;20049;-71
2022/03/21 04:58:10;;;;;;;26.02;17.52;;;3.30;99.90;;;;;;5058665;28;20132;-71
2022/03/21 05:00:37;;;;;;;24.45;15.98;;;3.40;99.90;;;;;;5058148;28;20041;-71
2022/03/21 05:03:07;;;;;;;27.30;16.48;;;3.20;99.90;;;;;;5092716;28;20040;-71
2022/03/21 05:05:35;;;;;;;32.95;18.83;;;3.30;99.90;;;;;;5095061;28;20057;-71
2022/03/21 05:08:02;;;;;;;23.15;15.15;;;3.30;99.90;;;;;;5061906;28;20092;-71
2022/03/21 05:10:28;;;;;;;27.27;17.67;;;3.20;99.90;;;;;;5078672;28;20053;-71
2022/03/21 05:12:54;;;;;;;36.30;20.20;;;3.30;99.90;;;;;;5095603;28;20117;-71
2022/03/21 05:15:20;;;;;;;32.75;19.38;;;3.40;99.90;;;;;;5037278;28;20045;-71
2022/03/21 05:17:46;;;;;;;27.13;16.23;;;3.30;99.90;;;;;;5092325;28;20554;-71
2022/03/21 05:20:16;;;;;;;23.55;15.98;;;3.30;99.90;;;;;;5096325;28;20045;-71
2022/03/21 05:22:44;;;;;;;14.35;11.85;;;3.30;99.90;;;;;;5090281;28;20072;-71
2022/03/21 05:30:57;;;;;;;11.52;8.55;;;3.00;99.90;;;;;;5066666;28;20122;-71
2022/03/21 05:36:08;;;;;;;97.55;15.50;;;2.70;99.90;;;;;;5016542;28;20061;-72
2022/03/21 05:38:34;;;;;;;25.70;14.02;;;2.80;99.90;;;;;;5062565;28;20049;-71
2022/03/21 05:41:01;;;;;;;23.33;14.85;;;2.80;99.90;;;;;;5098178;28;20049;-71
2022/03/21 05:43:32;;;;;;;21.73;15.25;;;2.90;99.90;;;;;;5055693;28;20057;-71
2022/03/21 05:46:01;;;;;;;24.17;15.93;;;2.90;99.90;;;;;;5084786;28;20053;-77
2022/03/21 05:51:20;;;;;;;21.17;14.57;;;3.00;99.90;;;;;;5098491;28;20059;-69
2022/03/21 05:53:46;;;;;;;21.38;14.18;;;2.70;99.90;;;;;;5097230;28;20068;-69
2022/03/21 05:56:13;;;;;;;22.77;14.90;;;2.50;99.90;;;;;;5062140;28;20045;-69
2022/03/21 05:58:39;;;;;;;21.23;14.00;;;2.50;99.90;;;;;;5095649;28;20056;-69
2022/03/21 06:01:04;;;;;;;19.60;14.35;;;2.60;99.90;;;;;;5063017;28;20033;-68
2022/03/21 06:03:30;;;;;;;21.58;14.18;;;2.50;99.90;;;;;;5062271;28;20048;-68
2022/03/21 06:05:57;;;;;;;24.83;16.48;;;2.70;99.90;;;;;;5063288;28;20037;-69
2022/03/21 06:08:24;;;;;;;25.70;17.17;;;2.60;99.90;;;;;;5097535;28;20089;-69
2022/03/21 06:11:03;;;;;;;22.42;16.20;;;2.40;99.90;;;;;;5095104;28;20067;-69
2022/03/21 06:13:33;;;;;;;24.38;15.43;;;2.20;99.90;;;;;;5097435;28;20120;-69
2022/03/21 06:16:03;;;;;;;33.40;20.20;;;2.40;99.90;;;;;;5060790;28;20390;-74
2022/03/21 06:18:36;;;;;;;37.53;22.38;;;2.50;99.90;;;;;;5098843;28;20057;-67
2022/03/21 06:21:05;;;;;;;34.17;19.30;;;2.30;99.90;;;;;;5063591;28;20053;-70
2022/03/21 06:23:31;;;;;;;28.38;18.45;;;2.40;99.90;;;;;;5062122;28;20053;-68
2022/03/21 06:25:58;;;;;;;25.70;15.68;;;2.50;99.90;;;;;;5063627;28;20095;-68
2022/03/21 06:28:26;;;;;;;23.35;15.40;;;2.40;99.90;;;;;;5095979;28;20096;-68
2022/03/21 06:30:53;;;;;;;27.60;17.10;;;2.50;99.90;;;;;;5080502;28;20077;-67
2022/03/21 06:33:21;;;;;;;34.15;22.67;;;2.60;99.90;;;;;;5062011;28;20111;-67
2022/03/21 06:35:48;;;;;;;31.80;20.55;;;3.00;99.90;;;;;;5050876;28;20068;-68
2022/03/21 06:38:14;;;;;;;31.65;21.50;;;3.00;99.90;;;;;;5063924;28;20059;-67
2022/03/21 06:40:42;;;;;;;36.15;21.25;;;3.30;99.90;;;;;;5063954;28;20073;-68
2022/03/21 06:43:07;;;;;;;36.67;22.30;;;3.70;99.90;;;;;;5095054;28;20037;-70
2022/03/21 06:45:33;;;;;;;33.47;21.05;;;3.70;99.90;;;;;;5084808;28;20392;-70
2022/03/21 06:47:59;;;;;;;31.98;21.30;;;3.80;99.90;;;;;;5082918;28;20044;-70
2022/03/21 06:50:25;;;;;;;34.80;22.20;;;4.10;99.90;;;;;;5082272;28;20130;-71
2022/03/21 06:52:52;;;;;;;36.15;23.13;;;4.20;99.90;;;;;;5092612;28;20044;-71
2022/03/21 06:55:19;;;;;;;34.67;21.98;;;4.40;99.90;;;;;;5038642;28;20042;-72
2022/03/21 06:57:45;;;;;;;36.33;23.35;;;4.50;99.90;;;;;;5085367;28;20056;-71
2022/03/21 07:00:13;;;;;;;35.75;22.98;;;4.50;99.90;;;;;;5064185;28;20497;-72
2022/03/21 07:02:40;;;;;;;37.92;23.65;;;4.70;99.90;;;;;;5072402;28;20056;-69
2022/03/21 07:05:07;;;;;;;34.92;22.92;;;4.60;99.90;;;;;;5067335;28;20059;-69
2022/03/21 07:07:33;;;;;;;39.08;24.40;;;4.90;99.90;;;;;;5051040;28;20120;-69
2022/03/21 07:10:00;;;;;;;35.88;22.35;;;4.90;99.90;;;;;;5080646;28;20306;-69
2022/03/21 07:12:26;;;;;;;35.83;23.50;;;5.00;99.90;;;;;;5089129;28;20048;-69
2022/03/21 07:14:52;;;;;;;41.58;25.20;;;5.30;99.90;;;;;;5063010;28;20067;-69
2022/03/21 07:17:19;;;;;;;40.90;25.50;;;5.30;99.90;;;;;;5068974;28;20051;-75
2022/03/21 07:19:45;;;;;;;39.40;24.50;;;5.30;99.90;;;;;;5067893;28;20049;-74
2022/03/21 07:22:11;;;;;;;37.05;24.00;;;5.20;99.90;;;;;;5076333;28;20061;-70
2022/03/21 07:24:38;;;;;;;40.53;25.35;;;5.60;99.90;;;;;;5071666;28;20094;-72
2022/03/21 07:27:03;;;;;;;40.55;24.65;;;5.70;99.90;;;;;;5046233;28;20048;-72
2022/03/21 07:29:29;;;;;;;42.80;25.63;;;5.80;99.90;;;;;;5071111;28;20193;-74
2022/03/21 07:31:56;;;;;;;37.45;24.55;;;5.60;99.90;;;;;;5089773;28;20045;-76
2022/03/21 07:34:22;;;;;;;42.03;24.88;;;5.80;99.90;;;;;;5077102;28;20123;-69
2022/03/21 07:36:49;;;;;;;37.80;24.00;;;5.80;99.90;;;;;;5077810;28;20068;-70
2022/03/21 07:39:14;;;;;;;43.78;25.33;;;5.80;99.90;;;;;;5092898;28;20063;-69
2022/03/21 07:41:40;;;;;;;36.78;24.00;;;5.90;99.90;;;;;;5049049;28;20109;-70
2022/03/21 07:44:06;;;;;;;40.88;25.17;;;6.00;99.90;;;;;;5064131;28;20079;-69
2022/03/21 07:49:16;;;;;;;36.60;23.20;;;6.00;99.90;;;;;;5097958;28;20075;-69
2022/03/21 07:51:43;;;;;;;36.10;23.48;;;6.40;99.90;;;;;;5043856;28;20041;-69
2022/03/21 07:54:13;;;;;;;37.33;23.45;;;6.40;99.90;;;;;;5072189;28;20048;-70
2022/03/21 07:56:40;;;;;;;39.38;23.30;;;6.30;99.90;;;;;;5055308;28;20345;-71
2022/03/21 07:59:06;;;;;;;38.40;23.98;;;6.40;99.90;;;;;;5096718;28;20060;-71
2022/03/21 08:01:33;;;;;;;34.70;22.27;;;6.50;99.90;;;;;;5056582;28;20144;-71
2022/03/21 08:04:00;;;;;;;37.72;23.98;;;6.50;99.90;;;;;;5069609;28;20300;-71
2022/03/21 08:06:27;;;;;;;34.60;21.25;;;6.60;99.90;;;;;;5058814;28;20033;-71
2022/03/21 08:08:57;;;;;;;34.58;22.70;;;6.70;99.90;;;;;;5059244;28;20052;-71
2022/03/21 08:11:23;;;;;;;32.63;20.90;;;6.80;99.90;;;;;;5075802;28;20068;-71
2022/03/21 08:13:52;;;;;;;35.05;22.80;;;6.70;99.90;;;;;;5066781;28;20055;-70
2022/03/21 08:16:20;;;;;;;38.35;22.77;;;6.90;99.90;;;;;;5059426;28;20048;-71
2022/03/21 08:18:50;;;;;;;31.63;22.55;;;6.90;99.90;;;;;;5074671;28;20146;-71
2022/03/21 08:21:19;;;;;;;30.10;21.15;;;6.90;99.90;;;;;;5048248;28;20071;-72
2022/03/21 08:23:47;;;;;;;32.05;20.77;;;7.10;99.90;;;;;;5082100;28;20036;-71
2022/03/21 08:26:13;;;;;;;31.77;21.15;;;7.00;99.90;;;;;;5043172;28;20047;-71
2022/03/21 08:28:38;;;;;;;32.00;20.98;;;7.10;99.90;;;;;;5070749;28;20071;-71
2022/03/21 08:31:04;;;;;;;35.55;20.92;;;7.30;99.90;;;;;;5059812;28;20041;-71
2022/03/21 08:33:30;;;;;;;30.20;19.10;;;7.30;99.90;;;;;;5088418;28;20555;-71
2022/03/21 08:35:56;;;;;;;38.45;22.13;;;7.50;99.90;;;;;;5053729;28;20397;-71
2022/03/21 08:38:21;;;;;;;30.52;18.45;;;7.50;99.90;;;;;;5087251;28;20052;-71
2022/03/21 08:40:47;;;;;;;29.40;18.65;;;7.60;99.90;;;;;;5064408;28;20067;-71
2022/03/21 08:43:13;;;;;;;29.20;17.80;;;7.60;99.90;;;;;;5056069;28;20078;-71
2022/03/21 08:45:40;;;;;;;28.58;18.52;;;7.60;99.90;;;;;;5041196;28;20047;-71
2022/03/21 08:48:06;;;;;;;32.15;20.13;;;7.90;99.90;;;;;;5051056;28;20647;-71
2022/03/21 08:50:34;;;;;;;28.38;17.73;;;8.00;99.90;;;;;;5059095;28;20053;-71
2022/03/21 08:53:00;;;;;;;29.80;18.45;;;8.20;99.90;;;;;;5067333;28;20044;-71
2022/03/21 08:55:26;;;;;;;29.15;18.77;;;8.10;99.90;;;;;;5067208;28;20113;-71
2022/03/21 08:57:52;;;;;;;27.63;18.20;;;8.20;99.90;;;;;;5064612;28;20193;-71
2022/03/21 09:00:18;;;;;;;27.30;16.27;;;8.30;99.90;;;;;;5069104;28;20060;-71
2022/03/21 09:02:46;;;;;;;25.50;17.00;;;8.30;99.90;;;;;;5046558;28;20112;-71
2022/03/21 09:05:14;;;;;;;26.70;16.65;;;8.40;99.90;;;;;;5075783;28;20049;-69
2022/03/21 09:07:41;;;;;;;26.88;17.98;;;8.40;99.90;;;;;;5053387;28;20217;-69
2022/03/21 09:10:07;;;;;;;27.35;17.38;;;8.70;99.90;;;;;;5074086;28;20113;-69
2022/03/21 09:12:34;;;;;;;24.77;17.27;;;8.70;99.90;;;;;;5058693;28;20060;-68
2022/03/21 09:14:59;;;;;;;25.73;17.88;;;8.70;99.90;;;;;;5065987;28;20254;-68
2022/03/21 09:17:26;;;;;;;28.27;17.35;;;8.90;99.90;;;;;;5061261;28;20041;-70
2022/03/21 09:19:52;;;;;;;23.70;15.77;;;9.00;99.90;;;;;;5066549;28;20048;-69
2022/03/21 09:22:18;;;;;;;27.63;16.42;;;9.20;99.90;;;;;;5090267;28;20124;-70
2022/03/21 09:24:45;;;;;;;26.40;17.17;;;9.20;99.90;;;;;;5098158;28;20796;-70
2022/03/21 09:27:11;;;;;;;26.70;16.90;;;9.50;99.90;;;;;;5058092;28;20098;-71
2022/03/21 09:29:37;;;;;;;22.42;16.45;;;9.60;99.90;;;;;;5066532;28;20059;-71
2022/03/21 09:32:04;;;;;;;27.85;16.65;;;9.60;99.90;;;;;;5057331;28;20344;-70
2022/03/21 09:34:32;;;;;;;22.52;17.33;;;9.70;99.90;;;;;;5095585;28;20048;-70
2022/03/21 09:36:58;;;;;;;25.17;17.45;;;9.70;99.90;;;;;;5030810;28;20053;-71
2022/03/21 09:39:24;;;;;;;29.15;18.15;;;9.80;99.90;;;;;;5051912;28;20048;-71
2022/03/21 09:41:50;;;;;;;28.13;17.45;;;9.90;99.90;;;;;;5057911;28;20262;-71
2022/03/21 09:44:16;;;;;;;25.85;17.98;;;9.90;99.90;;;;;;5062905;28;20048;-71
2022/03/21 09:46:44;;;;;;;27.63;17.42;;;10.00;99.90;;;;;;5060280;28;20283;-71
2022/03/21 09:49:12;;;;;;;25.42;17.08;;;10.20;99.90;;;;;;5072278;28;20491;-71
2022/03/21 09:51:39;;;;;;;30.38;18.40;;;10.20;99.90;;;;;;5061345;28;20067;-71
2022/03/21 09:54:05;;;;;;;29.15;19.10;;;10.40;99.90;;;;;;5061015;28;20063;-71
2022/03/21 09:56:31;;;;;;;26.73;18.27;;;10.40;99.90;;;;;;5055388;28;20041;-71
2022/03/21 09:59:00;;;;;;;30.88;19.23;;;10.40;99.90;;;;;;5060687;28;20060;-71
2022/03/21 10:01:30;;;;;;;27.73;18.75;;;10.60;99.90;;;;;;5064135;28;20045;-71
2022/03/21 10:03:57;;;;;;;29.60;18.42;;;10.70;99.90;;;;;;5057614;28;20067;-71
2022/03/21 10:06:37;;;;;;;27.77;19.23;;;10.70;99.90;;;;;;5061708;28;20075;-71
2022/03/21 10:09:06;;;;;;;33.47;19.20;;;10.80;99.90;;;;;;5073398;28;20048;-71
2022/03/21 10:11:34;;;;;;;28.85;19.80;;;10.90;99.90;;;;;;5062443;28;20060;-70
2022/03/21 10:14:48;;;;;;;31.27;19.92;;;11.10;99.90;;;;;;5055031;28;20119;-71
2022/03/21 10:17:22;;;;;;;31.45;21.48;;;11.10;99.90;;;;;;4991486;28;20550;-71
2022/03/21 10:19:53;;;;;;;28.60;18.48;;;11.10;99.90;;;;;;4999300;28;20128;-71
2022/03/21 10:22:33;;;;;;;32.67;21.63;;;11.10;99.90;;;;;;5006353;28;20136;-71
2022/03/21 10:25:08;;;;;;;35.20;21.90;;;11.20;99.90;;;;;;5001813;28;20144;-71
2022/03/21 10:27:39;;;;;;;32.50;20.85;;;11.40;99.90;;;;;;4998604;28;20279;-71
2022/03/21 10:30:08;;;;;;;30.08;20.30;;;11.40;99.90;;;;;;4987994;28;20597;-71
2022/03/21 10:32:36;;;;;;;33.00;21.73;;;11.60;99.90;;;;;;4980048;28;20050;-70
2022/03/21 10:35:07;;;;;;;30.38;22.15;;;11.70;99.90;;;;;;5007061;28;20095;-71
2022/03/21 10:37:53;;;;;;;28.13;20.45;;;11.70;99.90;;;;;;4984569;28;20086;-70
2022/03/21 10:40:32;;;;;;;28.63;21.17;;;11.70;99.90;;;;;;5000813;28;20590;-71
2022/03/21 10:43:04;;;;;;;29.33;20.85;;;11.80;99.90;;;;;;5000684;28;20128;-71
2022/03/21 10:45:41;;;;;;;31.17;21.63;;;11.90;99.90;;;;;;4997714;28;20559;-70
2022/03/21 10:48:16;;;;;;;34.10;21.40;;;11.90;99.90;;;;;;4989971;28;20073;-70
2022/03/21 10:50:46;;;;;;;32.42;21.55;;;12.00;99.90;;;;;;5004744;28;20056;-69
2022/03/21 10:53:14;;;;;;;34.63;22.33;;;12.00;99.90;;;;;;4995097;28;20448;-70
2022/03/21 10:55:49;;;;;;;32.40;21.65;;;12.00;99.90;;;;;;5084745;28;20083;-70
2022/03/21 10:58:17;;;;;;;36.33;22.30;;;12.10;99.90;;;;;;5083576;28;20626;-69
2022/03/21 11:00:44;;;;;;;34.38;20.83;;;12.20;99.90;;;;;;5065256;28;20548;-69
2022/03/21 11:03:15;;;;;;;31.55;21.27;;;12.20;99.90;;;;;;5084181;28;20292;-70
2022/03/21 11:05:43;;;;;;;32.25;21.13;;;12.40;99.90;;;;;;5072323;28;20049;-70
2022/03/21 11:08:11;;;;;;;31.17;21.42;;;12.60;99.90;;;;;;5045234;28;20084;-70
2022/03/21 11:10:38;;;;;;;32.70;22.35;;;12.50;99.90;;;;;;5089127;28;20052;-70
2022/03/21 11:13:06;;;;;;;36.30;21.98;;;12.50;99.90;;;;;;5044350;28;20045;-70
2022/03/21 11:15:35;;;;;;;32.63;21.10;;;12.50;99.90;;;;;;5088091;28;20103;-69
2022/03/21 11:18:02;;;;;;;31.98;21.98;;;12.50;99.90;;;;;;5054872;28;20134;-70
2022/03/21 11:20:31;;;;;;;29.50;20.45;;;12.50;99.90;;;;;;5077861;28;20056;-70
2022/03/21 11:23:01;;;;;;;31.83;21.80;;;12.70;99.90;;;;;;5058375;28;20063;-70
2022/03/21 11:25:32;;;;;;;30.48;20.13;;;12.80;99.90;;;;;;5072508;28;20053;-70
2022/03/21 11:28:26;;;;;;;34.28;22.27;;;12.90;99.90;;;;;;5056434;28;20044;-70
2022/03/21 11:31:01;;;;;;;32.47;23.30;;;13.00;99.90;;;;;;5034753;28;20056;-70
2022/03/21 11:33:45;;;;;;;31.63;21.65;;;13.10;99.90;;;;;;5050749;28;20050;-69
2022/03/21 11:36:12;;;;;;;32.60;21.25;;;13.10;99.90;;;;;;5046765;28;20105;-69
2022/03/21 11:38:45;;;;;;;30.60;21.75;;;13.20;99.90;;;;;;5055448;28;20048;-69
2022/03/21 11:41:21;;;;;;;32.67;22.20;;;13.30;99.90;;;;;;5066778;28;20049;-69
2022/03/21 11:44:16;;;;;;;31.52;20.95;;;13.40;99.90;;;;;;5046252;28;20064;-69
2022/03/21 11:46:45;;;;;;;33.90;22.85;;;13.50;99.90;;;;;;5061004;28;20104;-69
2022/03/21 11:49:20;;;;;;;32.25;20.60;;;13.60;99.90;;;;;;5059158;28;20076;-69
2022/03/21 11:51:56;;;;;;;30.13;21.77;;;13.60;99.90;;;;;;5060537;28;20037;-69
2022/03/21 11:54:26;;;;;;;32.60;21.33;;;13.80;99.90;;;;;;5052631;28;20174;-70
2022/03/21 11:57:04;;;;;;;32.97;20.83;;;13.70;99.90;;;;;;5067591;28;20060;-70
2022/03/21 11:59:33;;;;;;;33.60;22.30;;;13.70;99.90;;;;;;5058879;28;20078;-70
2022/03/21 12:02:24;;;;;;;29.67;20.95;;;13.80;99.90;;;;;;5052309;28;20048;-70
2022/03/21 12:05:02;;;;;;;33.53;21.90;;;14.00;99.90;;;;;;5055636;28;20048;-70
2022/03/21 12:07:29;;;;;;;37.25;22.30;;;14.10;99.90;;;;;;5052608;28;20045;-70
2022/03/21 12:09:56;;;;;;;31.10;21.25;;;14.10;99.90;;;;;;5075187;28;20345;-70
2022/03/21 12:12:23;;;;;;;31.92;20.40;;;14.30;99.90;;;;;;5058879;28;20117;-71
2022/03/21 12:15:00;;;;;;;29.75;21.38;;;14.40;99.90;;;;;;5062396;28;20048;-71
2022/03/21 12:17:27;;;;;;;32.53;21.52;;;14.60;99.90;;;;;;5052068;28;20043;-70
2022/03/21 12:20:02;;;;;;;32.88;21.55;;;14.60;99.90;;;;;;5062942;28;20055;-69
2022/03/21 12:22:34;;;;;;;31.95;22.25;;;14.80;99.90;;;;;;5058947;28;20067;-70
2022/03/21 12:25:02;;;;;;;34.47;22.77;;;14.80;99.90;;;;;;5061116;28;20055;-70
2022/03/21 12:27:45;;;;;;;33.88;23.35;;;14.90;99.90;;;;;;5041932;28;20056;-70
2022/03/21 12:30:30;;;;;;;31.45;21.63;;;15.00;99.90;;;;;;5064600;28;20067;-70
2022/03/21 12:33:14;;;;;;;32.92;21.67;;;15.10;99.90;;;;;;5090621;28;20109;-70
2022/03/21 12:35:40;;;;;;;28.23;18.88;;;15.10;99.90;;;;;;5057066;28;20174;-71
2022/03/21 12:38:34;;;;;;;29.75;18.00;;;15.20;99.90;;;;;;5026153;28;20111;-70
2022/03/21 12:41:03;;;;;;;30.77;19.80;;;15.20;99.90;;;;;;5069874;28;20064;-70
2022/03/21 12:43:42;;;;;;;30.17;18.80;;;15.20;99.90;;;;;;5046330;28;20047;-71
2022/03/21 12:46:12;;;;;;;32.00;21.70;;;15.30;99.90;;;;;;5071290;28;20525;-70
2022/03/21 12:48:46;;;;;;;35.20;20.40;;;15.30;99.90;;;;;;5083237;28;20056;-71
2022/03/21 12:51:15;;;;;;;34.97;22.08;;;15.50;99.90;;;;;;5069238;28;20546;-71
2022/03/21 12:53:47;;;;;;;26.95;18.67;;;15.70;99.90;;;;;;5082313;28;20049;-71
2022/03/21 12:56:16;;;;;;;31.23;22.45;;;15.80;99.90;;;;;;5066971;28;20124;-71
2022/03/21 12:58:45;;;;;;;26.55;18.15;;;15.90;99.90;;;;;;5047345;28;20059;-70